Time;durP1;ratioP1;P1;durP2;ratioP2;P2;SDS_P1;SDS_P2;PMS_P1;PMS_P2;Temp;Humidity;BMP_temperature;BMP_pressure;BME280_temperature;BME280_humidity;BME280_pressure;Samples;Min_cycle;Max_cycle;Signal;HPM_P1;HPM_P2
2021/10/30 00:02:20;;;;;;;24.38;17.90;;;;;;;8.07;71.02;100386.63;4975483;28;20421;-77
2021/10/30 00:04:46;;;;;;;25.40;18.23;;;;;;;8.03;71.45;100395.38;4958014;28;20505;-77
2021/10/30 00:07:14;;;;;;;26.02;18.42;;;;;;;7.98;70.97;100394.50;4975246;28;20038;-76
2021/10/30 00:09:41;;;;;;;25.42;17.80;;;;;;;7.91;71.37;100390.94;4954180;28;20379;-76
2021/10/30 00:12:07;;;;;;;20.52;16.25;;;;;;;7.89;71.15;100393.59;4975274;28;20038;-77
2021/10/30 00:14:32;;;;;;;26.58;18.38;;;;;;;7.95;71.44;100391.84;4971175;28;20089;-77
2021/10/30 00:16:57;;;;;;;23.00;17.77;;;;;;;7.97;71.03;100393.63;4957845;28;20046;-77
2021/10/30 00:19:23;;;;;;;22.77;18.17;;;;;;;7.92;71.59;100386.59;4958013;28;20038;-76
2021/10/30 00:21:52;;;;;;;26.85;18.50;;;;;;;7.85;71.49;100390.94;4975151;28;20042;-76
2021/10/30 00:24:17;;;;;;;23.35;17.35;;;;;;;7.84;71.30;100391.84;4974674;28;20042;-76
2021/10/30 00:26:43;;;;;;;28.48;19.98;;;;;;;7.84;71.25;100390.06;4975109;28;20045;-77
2021/10/30 00:29:08;;;;;;;24.73;17.92;;;;;;;7.88;71.21;100391.81;4956696;28;20401;-76
2021/10/30 00:31:34;;;;;;;24.70;18.25;;;;;;;7.97;71.00;100392.75;4957479;28;20498;-77
2021/10/30 00:33:59;;;;;;;25.73;18.02;;;;;;;7.98;70.97;100386.59;4974922;28;20026;-77
2021/10/30 00:36:24;;;;;;;21.85;17.08;;;;;;;7.95;71.11;100387.47;4974864;28;20046;-77
2021/10/30 00:38:49;;;;;;;31.35;18.77;;;;;;;7.96;71.11;100378.69;4974687;28;20035;-77
2021/10/30 00:41:15;;;;;;;24.38;18.08;;;;;;;7.98;71.09;100386.59;4974650;28;20113;-77
2021/10/30 00:43:41;;;;;;;26.15;18.40;;;;;;;8.01;70.76;100381.34;4952312;28;20085;-77
2021/10/30 00:46:06;;;;;;;24.88;18.55;;;;;;;7.98;70.98;100381.34;4957130;28;20035;-76
2021/10/30 00:48:31;;;;;;;23.40;16.75;;;;;;;8.00;70.77;100384.88;4973895;28;20406;-77
2021/10/30 00:50:59;;;;;;;24.88;17.73;;;;;;;8.00;71.01;100374.34;4968040;28;20517;-76
2021/10/30 00:53:32;;;;;;;22.80;17.73;;;;;;;8.02;70.96;100372.59;4974428;28;20041;-76
2021/10/30 00:56:04;;;;;;;22.52;17.23;;;;;;;7.99;70.73;100375.19;4957505;28;20500;-77
2021/10/30 00:58:35;;;;;;;26.17;17.30;;;;;;;7.95;70.84;100370.84;4970967;28;20408;-77
2021/10/30 01:01:02;;;;;;;25.42;18.45;;;;;;;7.90;71.17;100365.56;4974512;28;20035;-76
2021/10/30 01:03:30;;;;;;;27.00;18.25;;;;;;;7.82;71.26;100362.03;4948946;28;20074;-77
2021/10/30 01:05:55;;;;;;;25.67;19.10;;;;;;;7.76;71.22;100365.53;4956903;28;20041;-77
2021/10/30 01:08:22;;;;;;;25.35;18.80;;;;;;;7.68;71.22;100362.00;4974076;28;20034;-77
2021/10/30 01:10:48;;;;;;;25.83;17.33;;;;;;;7.63;71.90;100369.00;4974136;28;20050;-76
2021/10/30 01:13:14;;;;;;;25.17;18.48;;;;;;;7.57;71.80;100366.34;4970176;28;20034;-77
2021/10/30 01:15:39;;;;;;;24.85;18.80;;;;;;;7.64;72.17;100354.97;4974046;28;20039;-76
2021/10/30 01:18:07;;;;;;;32.05;19.83;;;;;;;7.66;71.31;100351.50;4974075;28;20035;-77
2021/10/30 01:20:33;;;;;;;22.73;17.92;;;;;;;7.57;71.62;100348.84;4956560;28;20034;-76
2021/10/30 01:23:00;;;;;;;27.75;20.83;;;;;;;7.54;71.51;100342.69;4973769;28;20042;-77
2021/10/30 01:25:26;;;;;;;25.00;19.00;;;;;;;7.53;72.18;100340.97;4973811;28;20031;-77
2021/10/30 01:27:54;;;;;;;24.80;18.20;;;;;;;7.61;72.40;100339.22;4956549;28;20456;-77
2021/10/30 01:30:21;;;;;;;27.85;20.40;;;;;;;7.72;72.12;100342.75;4973614;28;20038;-76
2021/10/30 01:32:56;;;;;;;29.48;19.38;;;;;;;7.79;71.95;100323.50;4973768;28;20102;-77
2021/10/30 01:35:27;;;;;;;25.05;18.48;;;;;;;7.80;71.50;100325.25;4956547;28;20125;-77
2021/10/30 01:37:54;;;;;;;26.90;19.95;;;;;;;7.79;71.97;100325.25;4973811;28;20042;-77
2021/10/30 01:40:19;;;;;;;25.52;18.83;;;;;;;7.81;71.70;100321.75;4973440;28;20038;-77
2021/10/30 01:42:52;;;;;;;25.92;19.40;;;;;;;7.86;71.60;100320.03;4956018;28;20045;-77
2021/10/30 01:45:18;;;;;;;26.58;19.52;;;;;;;7.86;72.08;100319.16;4949283;29;20635;-77
2021/10/30 01:47:43;;;;;;;29.95;19.33;;;;;;;7.87;71.59;100329.66;4973481;28;20083;-77
2021/10/30 01:50:12;;;;;;;26.05;19.42;;;;;;;7.92;71.52;100327.03;4949571;28;20042;-77
2021/10/30 01:52:38;;;;;;;24.95;18.90;;;;;;;7.95;71.69;100334.03;4973312;28;20109;-76
2021/10/30 01:55:09;;;;;;;23.55;18.63;;;;;;;7.98;71.49;100331.41;4973422;28;20134;-77
2021/10/30 01:57:35;;;;;;;24.88;19.65;;;;;;;7.94;71.42;100321.75;4973543;28;20133;-77
2021/10/30 02:00:00;;;;;;;26.30;19.10;;;;;;;7.91;71.84;100325.25;4955582;28;20117;-77
2021/10/30 02:02:26;;;;;;;23.27;18.33;;;;;;;7.86;71.88;100329.66;4973263;28;20045;-76
2021/10/30 02:04:51;;;;;;;23.13;17.67;;;;;;;7.83;71.99;100327.91;4955855;28;20054;-77
2021/10/30 02:07:16;;;;;;;26.90;21.23;;;;;;;7.84;72.06;100327.03;4973297;28;20046;-77
2021/10/30 02:09:42;;;;;;;25.90;18.98;;;;;;;7.82;72.42;100320.88;4973033;28;20038;-76
2021/10/30 02:12:07;;;;;;;27.38;20.13;;;;;;;7.80;71.99;100322.63;4973218;28;20050;-77
2021/10/30 02:14:32;;;;;;;24.48;19.27;;;;;;;7.78;72.11;100323.50;4955685;28;20043;-76
2021/10/30 02:16:58;;;;;;;22.67;17.92;;;;;;;7.78;72.30;100321.75;4973022;28;20039;-76
2021/10/30 02:19:23;;;;;;;25.92;18.77;;;;;;;7.76;72.01;100323.50;4961942;28;20039;-76
2021/10/30 02:21:48;;;;;;;23.90;18.77;;;;;;;7.77;71.95;100319.13;4973139;28;20037;-77
2021/10/30 02:24:14;;;;;;;24.13;18.88;;;;;;;7.74;72.15;100316.50;4963453;28;20035;-77
2021/10/30 02:26:39;;;;;;;25.67;20.02;;;;;;;7.70;72.38;100305.09;4955765;28;20057;-77
2021/10/30 02:29:04;;;;;;;23.30;18.65;;;;;;;7.63;72.56;100303.34;4972887;28;20035;-77
2021/10/30 02:31:30;;;;;;;25.73;18.65;;;;;;;7.60;72.87;100303.34;4955600;28;20050;-76
2021/10/30 02:33:55;;;;;;;25.30;18.98;;;;;;;7.59;72.53;100304.19;4972697;28;20043;-77
2021/10/30 02:36:20;;;;;;;29.95;19.73;;;;;;;7.63;72.56;100308.59;4972945;28;20037;-76
2021/10/30 02:38:46;;;;;;;24.35;18.55;;;;;;;7.68;72.52;100304.22;4972691;28;20126;-76
2021/10/30 02:41:12;;;;;;;24.77;19.00;;;;;;;7.73;72.00;100302.50;4947703;28;20035;-77
2021/10/30 02:43:37;;;;;;;23.85;18.08;;;;;;;7.70;72.11;100302.44;4955176;28;20506;-77
2021/10/30 02:46:02;;;;;;;24.58;19.02;;;;;;;7.67;72.55;100307.72;4972803;28;20045;-77
2021/10/30 02:48:28;;;;;;;23.98;18.50;;;;;;;7.66;72.58;100312.09;4972555;28;20066;-77
2021/10/30 02:50:53;;;;;;;25.17;19.20;;;;;;;7.67;72.22;100318.22;4972843;28;20034;-76
2021/10/30 02:53:18;;;;;;;24.02;18.13;;;;;;;7.65;72.29;100314.69;4946684;28;20062;-77
2021/10/30 02:55:44;;;;;;;29.65;18.83;;;;;;;7.64;72.31;100312.97;4957937;28;20046;-76
2021/10/30 02:58:09;;;;;;;23.98;19.75;;;;;;;7.68;72.91;100314.72;4976779;28;20039;-76
2021/10/30 03:00:34;;;;;;;26.23;19.95;;;;;;;7.66;72.24;100313.84;4953941;28;20034;-77
2021/10/30 03:03:00;;;;;;;24.13;18.30;;;;;;;7.58;72.67;100312.97;4976464;28;20166;-77
2021/10/30 03:05:25;;;;;;;25.92;19.52;;;;;;;7.55;72.51;100312.97;4976860;28;20382;-77
2021/10/30 03:07:51;;;;;;;22.05;17.70;;;;;;;7.54;72.49;100309.44;4976846;28;20035;-77
2021/10/30 03:10:16;;;;;;;26.50;19.80;;;;;;;7.56;72.86;100319.94;4959167;28;20105;-77
2021/10/30 03:12:42;;;;;;;25.58;19.83;;;;;;;7.50;72.46;100315.56;4976226;28;20397;-77
2021/10/30 03:15:07;;;;;;;28.25;20.52;;;;;;;7.47;72.67;100311.19;4967452;28;20457;-77
2021/10/30 03:17:33;;;;;;;21.88;18.05;;;;;;;7.42;72.46;100310.28;4952143;29;20260;-77
2021/10/30 03:19:58;;;;;;;24.60;17.90;;;;;;;7.36;72.83;100312.91;4976059;28;20034;-77
2021/10/30 03:22:23;;;;;;;26.58;20.45;;;;;;;7.32;73.12;100310.25;4959229;28;20042;-76
2021/10/30 03:24:49;;;;;;;23.00;19.15;;;;;;;7.33;72.97;100309.38;4976097;28;20051;-77
2021/10/30 03:27:15;;;;;;;23.10;18.10;;;;;;;7.33;73.10;100312.88;4959190;28;20045;-77
2021/10/30 03:29:40;;;;;;;23.02;18.65;;;;;;;7.28;73.61;100309.34;4976233;28;20062;-76
2021/10/30 03:32:06;;;;;;;24.35;18.73;;;;;;;7.13;73.97;100319.81;4942939;28;20034;-77
2021/10/30 03:34:31;;;;;;;24.65;18.55;;;;;;;7.02;73.87;100318.00;4975787;28;20106;-77
2021/10/30 03:36:56;;;;;;;24.95;17.98;;;;;;;7.02;74.00;100320.63;4976167;28;20047;-77
2021/10/30 03:39:22;;;;;;;25.33;18.65;;;;;;;6.97;74.58;100324.97;4975681;28;20042;-76
2021/10/30 03:41:47;;;;;;;23.75;18.77;;;;;;;6.91;74.27;100327.53;4975991;28;20125;-76
2021/10/30 03:44:13;;;;;;;23.92;18.17;;;;;;;6.92;75.06;100328.44;4975604;28;20118;-77
2021/10/30 03:46:38;;;;;;;25.50;19.08;;;;;;;6.89;74.74;100333.66;4975896;28;20074;-76
2021/10/30 03:49:03;;;;;;;24.90;18.60;;;;;;;6.88;75.32;100330.16;4950643;28;20096;-77
2021/10/30 03:51:29;;;;;;;25.70;19.40;;;;;;;6.95;75.25;100321.47;4975664;28;20042;-76
2021/10/30 03:53:54;;;;;;;26.60;19.35;;;;;;;6.92;75.19;100313.56;4965987;28;20097;-76
2021/10/30 03:56:19;;;;;;;22.17;17.70;;;;;;;6.88;75.20;100314.41;4968505;28;20035;-77
2021/10/30 03:58:44;;;;;;;22.20;18.27;;;;;;;6.85;75.43;100313.53;4957773;28;20081;-77
2021/10/30 04:01:10;;;;;;;24.27;18.67;;;;;;;6.82;75.19;100313.53;4975587;28;20034;-77
2021/10/30 04:03:36;;;;;;;27.90;19.85;;;;;;;6.76;75.49;100310.00;4974986;28;20045;-76
2021/10/30 04:06:02;;;;;;;25.23;18.10;;;;;;;6.80;75.84;100311.75;4957791;28;20142;-77
2021/10/30 04:08:28;;;;;;;28.25;18.70;;;;;;;6.86;75.47;100304.78;4941928;28;20038;-77
2021/10/30 04:10:53;;;;;;;26.25;19.73;;;;;;;6.97;76.08;100306.59;4975167;28;20085;-76
2021/10/30 04:13:19;;;;;;;25.45;20.15;;;;;;;7.05;75.19;100292.63;4957669;28;20077;-77
2021/10/30 04:15:44;;;;;;;25.40;18.85;;;;;;;7.06;75.08;100304.91;4953755;28;20035;-76
2021/10/30 04:18:09;;;;;;;24.70;18.63;;;;;;;7.08;75.03;100305.78;4974614;28;20030;-77
2021/10/30 04:20:35;;;;;;;25.38;19.80;;;;;;;7.18;75.21;100302.34;4953743;28;20046;-76
2021/10/30 04:23:00;;;;;;;23.35;18.20;;;;;;;7.27;75.02;100294.47;4974632;28;20066;-76
2021/10/30 04:25:25;;;;;;;25.48;18.33;;;;;;;7.28;74.96;100288.34;4975177;28;20093;-77
2021/10/30 04:27:51;;;;;;;24.05;17.88;;;;;;;7.27;74.58;100283.97;4975063;28;20043;-77
2021/10/30 04:30:16;;;;;;;25.70;18.77;;;;;;;7.27;74.69;100291.84;4975139;28;20117;-76
2021/10/30 04:32:43;;;;;;;25.95;19.65;;;;;;;7.31;74.75;100287.47;4957457;28;20047;-77
2021/10/30 04:35:10;;;;;;;27.00;18.38;;;;;;;7.38;74.43;100286.63;4957523;28;20410;-77
2021/10/30 04:37:35;;;;;;;28.27;19.15;;;;;;;7.41;74.55;100292.78;4974923;28;20042;-76
2021/10/30 04:40:01;;;;;;;24.13;18.63;;;;;;;7.42;73.96;100281.41;4974672;28;20030;-76
2021/10/30 04:42:27;;;;;;;24.50;18.38;;;;;;;7.48;74.37;100277.91;4974467;28;20034;-77
2021/10/30 04:44:52;;;;;;;25.00;17.67;;;;;;;7.47;73.95;100274.41;4970722;28;20478;-76
2021/10/30 04:47:18;;;;;;;26.13;19.65;;;;;;;7.47;73.76;100265.66;4974743;28;20050;-77
2021/10/30 04:49:48;;;;;;;26.15;20.92;;;;;;;7.48;73.95;100264.78;4957441;28;20045;-76
2021/10/30 04:52:13;;;;;;;28.25;19.80;;;;;;;7.50;74.12;100260.41;4974469;28;20026;-76
2021/10/30 04:54:38;;;;;;;27.30;21.10;;;;;;;7.53;74.03;100251.66;4974146;28;20083;-77
2021/10/30 04:57:05;;;;;;;25.55;18.92;;;;;;;7.54;73.94;100256.03;4968309;28;20031;-77
2021/10/30 04:59:30;;;;;;;26.85;20.35;;;;;;;7.54;74.18;100254.28;4974276;28;20490;-76
2021/10/30 05:01:55;;;;;;;26.80;18.90;;;;;;;7.54;73.56;100254.28;4974407;28;20046;-76
2021/10/30 05:04:21;;;;;;;24.60;18.60;;;;;;;7.54;74.17;100258.66;4974048;28;20038;-77
2021/10/30 05:06:46;;;;;;;27.30;20.65;;;;;;;7.56;73.88;100256.91;4974218;28;20046;-76
2021/10/30 05:09:11;;;;;;;28.30;19.25;;;;;;;7.55;73.32;100258.69;4974201;28;20046;-76
2021/10/30 05:11:37;;;;;;;29.55;21.23;;;;;;;7.53;73.89;100251.66;4974235;28;20129;-76
2021/10/30 05:14:02;;;;;;;24.63;19.27;;;;;;;7.53;73.79;100249.03;4973958;28;20031;-76
2021/10/30 05:16:27;;;;;;;28.90;19.88;;;;;;;7.55;73.52;100247.31;4973565;28;20050;-76
2021/10/30 05:18:53;;;;;;;25.23;18.83;;;;;;;7.52;73.79;100249.91;4956484;28;20042;-77
2021/10/30 05:21:18;;;;;;;26.65;19.80;;;;;;;7.51;73.42;100249.03;4973924;28;20405;-76
2021/10/30 05:23:43;;;;;;;26.60;20.42;;;;;;;7.54;73.88;100250.78;4956425;28;20039;-77
2021/10/30 05:26:09;;;;;;;26.38;20.23;;;;;;;7.53;73.72;100246.41;4973764;28;20054;-76
2021/10/30 05:28:35;;;;;;;25.55;19.83;;;;;;;7.48;73.38;100243.78;4973828;28;20393;-77
2021/10/30 05:31:01;;;;;;;28.50;20.38;;;;;;;7.48;73.33;100243.78;4973864;28;20148;-76
2021/10/30 05:33:27;;;;;;;26.80;20.38;;;;;;;7.45;73.61;100249.91;4973634;28;20031;-77
2021/10/30 05:36:12;;;;;;;25.55;19.17;;;;;;;7.42;73.38;100247.25;4970250;28;20517;-76
2021/10/30 05:38:51;;;;;;;26.27;20.25;;;;;;;7.40;73.58;100242.88;4953555;28;20039;-76
2021/10/30 05:41:17;;;;;;;25.15;18.65;;;;;;;7.38;73.94;100242.88;4964569;28;20056;-76
2021/10/30 05:43:43;;;;;;;25.52;19.27;;;;;;;7.39;73.68;100238.53;4973312;28;20081;-76
2021/10/30 05:46:08;;;;;;;26.33;20.10;;;;;;;7.41;73.71;100245.53;4973665;28;20121;-76
2021/10/30 05:48:35;;;;;;;25.58;19.05;;;;;;;7.41;73.59;100242.91;4973482;28;20038;-76
2021/10/30 05:51:01;;;;;;;26.20;19.17;;;;;;;7.42;74.03;100244.63;4973493;28;20046;-77
2021/10/30 05:53:27;;;;;;;26.08;19.75;;;;;;;7.44;73.97;100236.75;4969425;28;20039;-77
2021/10/30 05:55:52;;;;;;;24.60;17.95;;;;;;;7.44;73.46;100242.91;4956068;28;20130;-76
2021/10/30 05:58:18;;;;;;;25.45;19.33;;;;;;;7.44;73.47;100237.66;4973361;28;20039;-76
2021/10/30 06:00:43;;;;;;;24.35;18.42;;;;;;;7.47;73.80;100242.91;4971533;28;20039;-76
2021/10/30 06:03:08;;;;;;;26.90;18.67;;;;;;;7.50;73.59;100233.28;4968150;28;20516;-77
2021/10/30 06:05:34;;;;;;;25.90;19.13;;;;;;;7.53;73.42;100238.53;4973039;28;20031;-76
2021/10/30 06:07:59;;;;;;;24.65;19.15;;;;;;;7.55;73.58;100234.16;4953061;28;20057;-76
2021/10/30 06:10:26;;;;;;;26.17;18.67;;;;;;;7.56;73.79;100226.28;4949488;28;20398;-77
2021/10/30 06:12:51;;;;;;;30.13;19.13;;;;;;;7.62;73.39;100230.66;4972733;28;20524;-77
2021/10/30 06:15:16;;;;;;;26.25;19.33;;;;;;;7.66;73.45;100233.28;4972969;28;20046;-77
2021/10/30 06:17:42;;;;;;;24.88;17.77;;;;;;;7.69;72.83;100228.03;4973039;28;20034;-76
2021/10/30 06:20:08;;;;;;;26.17;19.58;;;;;;;7.74;72.76;100230.66;4972792;28;20065;-76
2021/10/30 06:22:34;;;;;;;29.15;19.88;;;;;;;7.73;73.03;100231.56;4968830;28;20525;-77
2021/10/30 06:24:59;;;;;;;25.25;18.42;;;;;;;7.76;72.73;100226.31;4972844;28;20035;-77
2021/10/30 06:27:25;;;;;;;27.20;19.65;;;;;;;7.78;72.31;100229.81;4947076;28;20046;-77
2021/10/30 06:29:50;;;;;;;29.88;19.88;;;;;;;7.80;72.66;100221.91;4972993;28;20050;-77
2021/10/30 06:32:16;;;;;;;26.83;19.23;;;;;;;7.84;72.68;100218.44;4972813;28;20050;-75
2021/10/30 06:34:41;;;;;;;28.02;19.67;;;;;;;7.86;71.99;100217.56;4972451;28;20042;-77
2021/10/30 06:37:07;;;;;;;25.88;20.08;;;;;;;7.90;72.91;100219.28;4972801;28;20062;-77
2021/10/30 06:39:33;;;;;;;24.25;19.15;;;;;;;7.94;72.35;100217.56;4955355;28;20062;-77
2021/10/30 06:41:58;;;;;;;24.38;19.92;;;;;;;7.98;72.52;100208.78;4973174;28;20077;-77
2021/10/30 06:44:27;;;;;;;24.80;19.38;;;;;;;8.00;72.21;100207.03;4947155;28;20049;-76
2021/10/30 06:46:53;;;;;;;26.45;19.58;;;;;;;8.06;71.80;100221.91;4975718;28;20035;-76
2021/10/30 06:49:19;;;;;;;23.20;18.20;;;;;;;8.08;71.79;100215.78;4972753;28;20034;-76
2021/10/30 06:51:47;;;;;;;25.70;18.90;;;;;;;8.15;71.95;100226.25;4955299;28;20182;-77
2021/10/30 06:54:12;;;;;;;28.30;21.20;;;;;;;8.18;72.06;100221.91;4963217;28;20037;-76
2021/10/30 06:56:39;;;;;;;28.02;20.45;;;;;;;8.26;71.38;100222.75;4972782;28;20434;-77
2021/10/30 06:59:06;;;;;;;29.23;20.50;;;;;;;8.32;71.54;100225.38;4968961;28;20474;-76
2021/10/30 07:01:33;;;;;;;24.85;19.60;;;;;;;8.37;71.30;100216.59;4972709;28;20035;-76
2021/10/30 07:03:59;;;;;;;27.10;20.48;;;;;;;8.40;71.17;100221.88;4972278;28;20042;-76
2021/10/30 07:06:24;;;;;;;25.60;20.40;;;;;;;8.47;71.24;100221.00;4972557;28;20031;-77
2021/10/30 07:08:49;;;;;;;25.63;18.63;;;;;;;8.52;70.64;100219.25;4955104;28;20482;-76
2021/10/30 07:11:15;;;;;;;24.02;18.80;;;;;;;8.57;70.51;100214.84;4955180;28;20520;-77
2021/10/30 07:13:41;;;;;;;27.15;19.27;;;;;;;8.66;70.65;100211.28;4972199;28;20039;-77
2021/10/30 07:16:06;;;;;;;24.60;19.05;;;;;;;8.78;70.51;100208.63;4955026;28;20038;-77
2021/10/30 07:18:31;;;;;;;24.60;19.52;;;;;;;8.83;70.07;100200.69;4947336;28;20054;-77
2021/10/30 07:20:56;;;;;;;28.48;20.38;;;;;;;8.86;70.23;100208.59;4963235;28;20042;-77
2021/10/30 07:23:22;;;;;;;29.70;20.13;;;;;;;8.89;70.27;100198.06;4974072;28;20035;-77
2021/10/30 07:25:48;;;;;;;26.92;19.63;;;;;;;8.95;69.90;100200.66;4977300;28;20045;-76
2021/10/30 07:28:14;;;;;;;26.42;19.95;;;;;;;9.03;70.03;100203.25;4977560;28;20043;-76
2021/10/30 07:30:39;;;;;;;26.05;20.27;;;;;;;9.07;69.64;100195.34;4973148;28;20043;-77
2021/10/30 07:33:04;;;;;;;29.00;20.40;;;;;;;9.11;69.99;100198.81;4972173;28;20030;-77
2021/10/30 07:35:30;;;;;;;26.63;20.10;;;;;;;9.18;69.44;100193.50;4972365;28;20421;-77
2021/10/30 07:38:00;;;;;;;26.48;19.52;;;;;;;9.21;69.49;100182.94;4972317;28;20474;-76
2021/10/30 07:40:27;;;;;;;24.25;19.10;;;;;;;9.31;68.82;100188.16;4976020;28;20501;-76
2021/10/30 07:42:53;;;;;;;28.02;19.45;;;;;;;9.35;68.64;100188.16;4942452;28;20099;-77
2021/10/30 07:45:18;;;;;;;24.85;19.10;;;;;;;9.43;68.33;100180.16;4976300;28;20059;-77
2021/10/30 07:47:43;;;;;;;23.67;18.65;;;;;;;9.48;68.34;100175.75;4975779;28;20050;-76
2021/10/30 07:50:09;;;;;;;26.45;19.90;;;;;;;9.52;68.64;100166.06;4958346;28;20497;-77
2021/10/30 07:52:34;;;;;;;26.02;19.48;;;;;;;9.56;69.07;100171.31;4958455;28;20038;-77
2021/10/30 07:55:00;;;;;;;24.48;19.58;;;;;;;9.60;68.24;100170.38;4975498;28;20078;-77
2021/10/30 07:57:26;;;;;;;22.63;17.50;;;;;;;9.68;67.84;100159.78;4970319;28;20043;-77
2021/10/30 07:59:51;;;;;;;24.73;18.92;;;;;;;9.77;67.98;100164.09;4975499;28;20043;-77
2021/10/30 08:02:20;;;;;;;23.67;17.65;;;;;;;9.84;67.49;100166.66;4950500;28;20118;-77
2021/10/30 08:04:46;;;;;;;24.67;18.90;;;;;;;9.90;67.27;100168.38;4967485;28;20132;-76
2021/10/30 08:07:11;;;;;;;25.67;19.52;;;;;;;9.95;67.27;100161.28;4958063;28;20073;-76
2021/10/30 08:09:37;;;;;;;26.90;18.70;;;;;;;10.02;66.72;100162.13;4975396;28;20039;-77
2021/10/30 08:12:02;;;;;;;23.23;17.63;;;;;;;10.08;67.04;100156.78;4975305;28;20082;-77
2021/10/30 08:14:28;;;;;;;23.35;18.05;;;;;;;10.13;67.26;100148.81;4957760;28;20034;-76
2021/10/30 08:16:53;;;;;;;22.85;17.98;;;;;;;10.20;67.15;100150.50;4975420;28;20493;-77
2021/10/30 08:19:19;;;;;;;24.80;19.02;;;;;;;10.24;66.83;100144.28;4975132;28;20034;-76
2021/10/30 08:21:44;;;;;;;23.88;18.58;;;;;;;10.26;67.01;100134.59;4975316;28;20042;-76
2021/10/30 08:24:11;;;;;;;25.13;18.85;;;;;;;10.30;66.22;100128.47;4974963;28;20038;-77
2021/10/30 08:26:36;;;;;;;25.00;18.92;;;;;;;10.38;65.70;100128.38;4975163;28;20118;-77
2021/10/30 08:29:02;;;;;;;22.95;17.75;;;;;;;10.44;65.02;100123.88;4975002;28;20109;-77
2021/10/30 08:31:28;;;;;;;21.70;16.52;;;;;;;10.50;65.63;100121.16;4975092;28;20097;-77
2021/10/30 08:33:56;;;;;;;22.90;18.27;;;;;;;10.57;65.35;100121.09;4957404;28;20039;-77
2021/10/30 08:36:22;;;;;;;26.05;18.30;;;;;;;10.66;65.55;100115.69;4974954;28;20046;-77
2021/10/30 08:38:47;;;;;;;26.70;19.70;;;;;;;10.69;64.96;100099.84;4957539;28;20046;-77
2021/10/30 08:41:13;;;;;;;24.55;18.58;;;;;;;10.71;64.48;100105.94;4975053;28;20035;-77
2021/10/30 08:43:38;;;;;;;25.05;18.95;;;;;;;10.77;64.76;100102.34;4974606;28;20125;-77
2021/10/30 08:46:04;;;;;;;23.40;19.20;;;;;;;10.80;64.70;100090.00;4974826;28;20570;-77
2021/10/30 08:48:31;;;;;;;25.65;19.73;;;;;;;10.87;64.29;100085.47;4965487;28;20631;-77
2021/10/30 08:50:58;;;;;;;26.25;19.35;;;;;;;10.93;63.63;100086.28;4973817;28;20049;-77
2021/10/30 08:53:24;;;;;;;23.35;19.80;;;;;;;10.96;63.48;100080.94;4957049;28;20062;-77
2021/10/30 08:55:51;;;;;;;29.88;22.20;;;;;;;11.02;63.47;100079.97;4974622;28;20038;-76
2021/10/30 08:58:17;;;;;;;23.83;18.90;;;;;;;11.07;63.61;100079.91;4974514;28;20043;-77
2021/10/30 09:00:45;;;;;;;25.80;18.35;;;;;;;11.10;63.31;100083.38;4974512;28;20042;-77
2021/10/30 09:03:13;;;;;;;24.30;17.48;;;;;;;11.14;62.88;100071.00;4974104;28;20478;-77
2021/10/30 09:05:40;;;;;;;25.13;19.30;;;;;;;11.21;63.09;100072.63;4957041;28;20038;-77
2021/10/30 09:08:07;;;;;;;24.05;19.55;;;;;;;11.25;62.25;100065.56;4974272;28;20042;-76
2021/10/30 09:10:45;;;;;;;28.02;19.48;;;;;;;11.29;61.97;100068.13;4974302;28;20047;-76
2021/10/30 09:13:12;;;;;;;26.92;19.13;;;;;;;11.38;61.85;100064.44;4948913;28;20147;-77
2021/10/30 09:15:50;;;;;;;24.65;18.75;;;;;;;11.39;61.58;100068.81;4974106;28;20461;-77
2021/10/30 09:18:38;;;;;;;27.38;19.98;;;;;;;11.46;61.82;100064.31;4970774;28;20074;-77
2021/10/30 09:21:03;;;;;;;26.63;19.15;;;;;;;11.55;61.10;100069.44;4956996;28;20086;-77
2021/10/30 09:23:30;;;;;;;23.60;19.00;;;;;;;11.62;61.14;100060.50;4956618;28;20051;-77
2021/10/30 09:26:04;;;;;;;28.00;19.77;;;;;;;11.70;60.84;100050.66;4956782;28;20035;-77
2021/10/30 09:28:33;;;;;;;28.63;19.63;;;;;;;11.78;60.51;100048.75;4956814;28;20043;-77
2021/10/30 09:31:02;;;;;;;28.95;20.15;;;;;;;11.81;59.74;100046.03;4956556;28;20026;-76
2021/10/30 09:33:30;;;;;;;25.23;19.40;;;;;;;11.88;60.43;100046.84;4956292;28;20041;-76
2021/10/30 09:35:57;;;;;;;25.98;18.95;;;;;;;11.94;60.27;100040.53;4974109;28;20086;-77
2021/10/30 09:38:32;;;;;;;29.00;19.20;;;;;;;12.04;59.25;100042.97;4973500;28;20049;-77
2021/10/30 09:41:00;;;;;;;24.35;18.67;;;;;;;12.10;59.64;100036.69;4970679;28;20091;-76
2021/10/30 09:43:25;;;;;;;25.13;18.90;;;;;;;12.17;59.22;100033.03;4973588;28;20050;-76
2021/10/30 09:45:54;;;;;;;24.58;17.52;;;;;;;12.22;58.89;100033.81;4973743;28;20125;-77
2021/10/30 09:48:23;;;;;;;23.27;18.40;;;;;;;12.31;58.77;100029.22;4973715;28;20578;-77
2021/10/30 09:50:54;;;;;;;24.38;17.27;;;;;;;12.36;58.09;100036.16;4956382;28;20145;-77
2021/10/30 09:53:30;;;;;;;25.38;18.08;;;;;;;12.42;57.91;100027.22;4973607;28;20041;-77
2021/10/30 09:56:01;;;;;;;22.77;18.05;;;;;;;12.46;57.96;100023.59;4973568;28;20069;-77
2021/10/30 09:58:34;;;;;;;25.10;17.17;;;;;;;12.48;56.99;100014.72;4973680;28;20045;-77
2021/10/30 10:01:04;;;;;;;24.83;18.35;;;;;;;12.58;57.86;100010.09;4973462;28;20751;-77
2021/10/30 10:03:31;;;;;;;23.10;17.80;;;;;;;12.67;58.21;99996.63;4973051;28;20481;-76
2021/10/30 10:05:59;;;;;;;22.25;18.02;;;;;;;12.72;57.17;99991.25;4967460;28;20090;-77
2021/10/30 10:08:25;;;;;;;21.02;17.20;;;;;;;12.76;57.23;99989.38;4973325;28;20404;-77
2021/10/30 10:10:55;;;;;;;21.33;18.20;;;;;;;12.85;56.80;99986.53;4973149;28;20049;-76
2021/10/30 10:13:21;;;;;;;24.73;18.38;;;;;;;12.87;56.66;99972.34;4973089;28;20039;-76
2021/10/30 10:15:48;;;;;;;29.35;19.92;;;;;;;12.90;55.69;99966.97;4973412;28;20393;-76
2021/10/30 10:18:14;;;;;;;25.23;20.58;;;;;;;12.98;56.50;99960.59;4955913;28;20136;-77
2021/10/30 10:20:39;;;;;;;23.48;18.80;;;;;;;13.02;56.47;99957.84;4955933;28;20556;-77
2021/10/30 10:23:05;;;;;;;21.58;18.45;;;;;;;13.07;55.75;99958.59;4972809;28;20035;-77
2021/10/30 10:25:34;;;;;;;24.30;19.08;;;;;;;13.00;55.16;99956.16;4972962;28;20405;-77
2021/10/30 10:28:19;;;;;;;22.88;19.10;;;;;;;13.06;54.96;99962.16;4972910;28;20039;-77
2021/10/30 10:30:52;;;;;;;26.38;19.73;;;;;;;13.13;55.56;99950.50;4959903;28;20122;-77
2021/10/30 10:33:17;;;;;;;24.33;18.13;;;;;;;13.18;54.89;99945.09;4950046;28;20186;-76
2021/10/30 10:36:21;;;;;;;25.05;18.95;;;;;;;13.25;54.27;99933.38;4955548;28;20477;-75
2021/10/30 10:38:53;;;;;;;22.88;17.58;;;;;;;13.33;55.40;99933.22;4970095;28;20034;-76
2021/10/30 10:41:37;;;;;;;23.50;18.23;;;;;;;13.40;55.18;99921.53;4969859;28;20089;-76
2021/10/30 10:44:05;;;;;;;24.15;18.30;;;;;;;13.48;55.29;99927.50;4968652;28;20045;-77
2021/10/30 10:46:32;;;;;;;26.40;19.02;;;;;;;13.48;54.49;99927.50;4969013;28;20025;-77
2021/10/30 10:49:18;;;;;;;25.10;17.83;;;;;;;13.53;54.45;99919.44;4968774;28;20042;-77
2021/10/30 10:51:47;;;;;;;21.83;17.35;;;;;;;13.47;53.48;99919.59;4952832;28;20061;-76
2021/10/30 10:54:16;;;;;;;22.98;17.70;;;;;;;13.53;53.35;99928.25;4972381;28;20066;-77
2021/10/30 10:56:57;;;;;;;23.77;16.25;;;;;;;13.63;53.19;99920.03;4972592;28;20049;-76
2021/10/30 10:59:39;;;;;;;24.23;18.15;;;;;;;13.73;53.60;99910.91;4968906;28;20130;-76
2021/10/30 11:02:18;;;;;;;19.85;17.42;;;;;;;13.80;53.48;99907.16;4971880;28;20058;-77
2021/10/30 11:05:24;;;;;;;20.40;16.80;;;;;;;13.84;53.20;99895.56;4972124;28;20508;-76
2021/10/30 11:07:49;;;;;;;24.73;18.17;;;;;;;13.86;53.72;99896.38;4949774;28;20047;-77
2021/10/30 11:10:23;;;;;;;24.42;18.48;;;;;;;13.84;53.09;99897.34;4972329;28;20054;-77
2021/10/30 11:13:09;;;;;;;21.05;17.50;;;;;;;13.87;51.37;99903.41;4972135;28;20051;-76
2021/10/30 11:15:43;;;;;;;23.58;18.15;;;;;;;13.96;51.74;99919.06;4976250;28;20122;-76
2021/10/30 11:18:22;;;;;;;23.60;17.45;;;;;;;14.14;51.68;99916.75;4939701;28;20070;-77